createdAt,value
2022-08-30T00:00:04.755Z,52.20
2022-08-30T00:00:56.589Z,52.20
2022-08-30T00:01:48.441Z,52.20
2022-08-30T00:02:40.374Z,52.20
2022-08-30T00:03:32.287Z,52.20
2022-08-30T00:04:23.952Z,52.20
2022-08-30T00:05:15.727Z,52.30
2022-08-30T00:06:07.615Z,52.30
2022-08-30T00:06:59.448Z,52.30
2022-08-30T00:07:51.302Z,52.20
2022-08-30T00:08:43.135Z,52.20
2022-08-30T00:09:35.002Z,52.30
2022-08-30T00:10:26.810Z,52.30
2022-08-30T00:11:18.624Z,52.30
2022-08-30T00:12:10.504Z,52.30
2022-08-30T00:13:02.325Z,52.30
2022-08-30T00:13:54.176Z,52.30
2022-08-30T00:14:45.949Z,52.40
2022-08-30T00:15:37.924Z,52.40
2022-08-30T00:16:29.705Z,52.40
2022-08-30T00:17:21.517Z,52.40
2022-08-30T00:18:13.367Z,52.40
2022-08-30T00:19:05.192Z,52.50
2022-08-30T00:19:57.073Z,52.50
2022-08-30T00:20:48.873Z,52.40
2022-08-30T00:21:40.746Z,52.40
2022-08-30T00:22:32.565Z,52.40
2022-08-30T00:23:24.396Z,52.40
2022-08-30T00:24:16.210Z,52.50
2022-08-30T00:25:08.072Z,52.40
2022-08-30T00:25:59.910Z,52.40
2022-08-30T00:26:51.743Z,52.40
2022-08-30T00:27:43.601Z,52.40
2022-08-30T00:28:35.442Z,52.50
2022-08-30T00:29:27.272Z,52.50
2022-08-30T00:30:19.034Z,52.40
2022-08-30T00:31:11.037Z,52.40
2022-08-30T00:32:02.759Z,52.40
2022-08-30T00:32:54.614Z,52.50
2022-08-30T00:33:46.468Z,52.50
2022-08-30T00:34:38.279Z,52.50
2022-08-30T00:35:30.108Z,52.50
2022-08-30T00:36:21.953Z,52.50
2022-08-30T00:37:13.790Z,52.50
2022-08-30T00:38:05.567Z,52.50
2022-08-30T00:38:57.447Z,52.50
2022-08-30T00:39:49.275Z,52.50
2022-08-30T00:40:41.177Z,52.50
2022-08-30T00:41:32.950Z,52.50
2022-08-30T00:42:24.796Z,52.50
2022-08-30T00:43:16.959Z,52.50
2022-08-30T00:44:08.480Z,52.50
2022-08-30T00:45:00.277Z,52.50
2022-08-30T00:45:52.228Z,52.60
2022-08-30T00:46:44.015Z,52.60
2022-08-30T00:47:35.730Z,52.60
2022-08-30T00:48:27.614Z,52.60
2022-08-30T00:49:19.481Z,52.50
2022-08-30T00:50:11.303Z,52.50
2022-08-30T00:51:03.166Z,52.60
2022-08-30T00:51:54.947Z,52.60
2022-08-30T00:52:46.802Z,52.60
2022-08-30T00:53:38.599Z,52.60
2022-08-30T00:54:30.490Z,52.60
2022-08-30T00:55:22.291Z,52.60
2022-08-30T00:56:14.123Z,52.60
2022-08-30T00:57:05.906Z,52.70
2022-08-30T00:57:57.797Z,52.60
2022-08-30T00:58:49.632Z,52.70
2022-08-30T00:59:41.474Z,52.70
2022-08-30T01:00:33.262Z,52.70
2022-08-30T01:01:25.189Z,52.70
2022-08-30T01:02:16.988Z,52.70
2022-08-30T01:03:08.862Z,52.70
2022-08-30T01:04:00.588Z,52.70
2022-08-30T01:04:52.458Z,52.70
2022-08-30T01:05:44.277Z,52.80
2022-08-30T01:06:36.042Z,52.70
2022-08-30T01:07:27.924Z,52.80
2022-08-30T01:08:19.772Z,52.70
2022-08-30T01:09:11.589Z,52.70
2022-08-30T01:10:03.373Z,52.70
2022-08-30T01:10:55.265Z,52.70
2022-08-30T01:11:47.095Z,52.70
2022-08-30T01:12:38.903Z,52.70
2022-08-30T01:13:30.786Z,52.70
2022-08-30T01:14:25.877Z,52.80
2022-08-30T01:15:14.417Z,52.80
2022-08-30T01:16:06.257Z,52.70
2022-08-30T01:16:58.090Z,52.70
2022-08-30T01:17:49.900Z,52.70
2022-08-30T01:18:41.758Z,52.70
2022-08-30T01:19:33.559Z,52.70
2022-08-30T01:20:25.431Z,52.90
2022-08-30T01:21:17.223Z,52.80
2022-08-30T01:22:09.081Z,52.80
2022-08-30T01:23:00.905Z,52.70
2022-08-30T01:23:52.757Z,52.70
2022-08-30T01:24:44.553Z,52.70
2022-08-30T01:25:36.390Z,52.70
2022-08-30T01:26:28.199Z,52.70
2022-08-30T01:27:20.079Z,52.70
2022-08-30T01:28:11.859Z,52.70
2022-08-30T01:29:03.667Z,52.70
2022-08-30T01:29:55.539Z,52.70
2022-08-30T01:30:47.421Z,52.80
2022-08-30T01:31:39.176Z,52.80
2022-08-30T01:32:31.022Z,52.80
2022-08-30T01:33:22.853Z,52.80
2022-08-30T01:34:14.688Z,52.80
2022-08-30T01:35:06.440Z,52.80
2022-08-30T01:35:58.347Z,52.80
2022-08-30T01:36:50.145Z,52.90
2022-08-30T01:37:41.986Z,52.90
2022-08-30T01:38:33.809Z,52.90
2022-08-30T01:39:25.633Z,52.90
2022-08-30T01:40:17.537Z,52.90
2022-08-30T01:41:09.307Z,53.00
2022-08-30T01:42:01.104Z,53.00
2022-08-30T01:42:52.941Z,53.00
2022-08-30T01:43:44.772Z,53.00
2022-08-30T01:44:36.602Z,53.00
2022-08-30T01:45:28.422Z,53.00
2022-08-30T01:46:20.511Z,53.00
2022-08-30T01:47:12.075Z,53.00
2022-08-30T01:48:06.755Z,53.00
2022-08-30T01:48:55.695Z,53.00
2022-08-30T01:49:47.553Z,53.00
2022-08-30T01:50:39.377Z,53.00
2022-08-30T01:51:31.192Z,53.00
2022-08-30T01:52:23.025Z,53.00
2022-08-30T01:53:14.881Z,53.00
2022-08-30T01:54:06.667Z,53.10
2022-08-30T01:54:58.507Z,53.00
2022-08-30T01:55:50.338Z,53.00
2022-08-30T01:56:42.154Z,53.00
2022-08-30T01:57:33.963Z,53.10
2022-08-30T01:58:25.722Z,53.10
2022-08-30T01:59:17.604Z,53.10
2022-08-30T02:00:09.442Z,53.10
2022-08-30T02:01:01.348Z,53.10
2022-08-30T02:01:53.183Z,53.10
2022-08-30T02:02:44.900Z,53.10
2022-08-30T02:03:36.783Z,53.10
2022-08-30T02:04:28.611Z,53.10
2022-08-30T02:05:20.377Z,53.20
2022-08-30T02:06:12.187Z,53.20
2022-08-30T02:07:04.017Z,53.20
2022-08-30T02:07:55.784Z,53.20
2022-08-30T02:08:47.665Z,53.20
2022-08-30T02:09:39.493Z,53.20
2022-08-30T02:10:31.300Z,53.20
2022-08-30T02:11:23.134Z,53.30
2022-08-30T02:12:14.953Z,53.30
2022-08-30T02:13:06.777Z,53.20
2022-08-30T02:13:58.586Z,53.30
2022-08-30T02:14:50.405Z,53.30
2022-08-30T02:15:42.234Z,53.30
2022-08-30T02:16:34.120Z,53.30
2022-08-30T02:17:25.814Z,53.30
2022-08-30T02:18:17.719Z,53.30
2022-08-30T02:19:09.516Z,53.30
2022-08-30T02:20:01.343Z,53.30
2022-08-30T02:20:53.188Z,53.30
2022-08-30T02:21:45.010Z,53.30
2022-08-30T02:22:36.799Z,53.30
2022-08-30T02:23:28.669Z,53.30
2022-08-30T02:24:20.460Z,53.30
2022-08-30T02:25:20.379Z,53.30
2022-08-30T02:26:04.096Z,53.30
2022-08-30T02:26:55.820Z,53.30
2022-08-30T02:27:47.727Z,53.40
2022-08-30T02:28:42.714Z,53.40
2022-08-30T02:29:31.366Z,53.40
2022-08-30T02:30:23.293Z,53.40
2022-08-30T02:31:15.055Z,53.50
2022-08-30T02:32:06.827Z,53.50
2022-08-30T02:32:58.647Z,53.70
2022-08-30T02:33:50.590Z,53.80
2022-08-30T02:34:42.293Z,53.60
2022-08-30T02:35:34.167Z,53.70
2022-08-30T02:36:25.870Z,53.50
2022-08-30T02:37:17.739Z,53.40
2022-08-30T02:38:09.582Z,53.40
2022-08-30T02:39:01.399Z,53.40
2022-08-30T02:39:53.209Z,53.30
2022-08-30T02:40:45.052Z,53.30
2022-08-30T02:41:36.858Z,53.40
2022-08-30T02:42:28.664Z,53.30
2022-08-30T02:43:20.506Z,53.40
2022-08-30T02:44:12.305Z,53.30
2022-08-30T02:45:04.138Z,53.30
2022-08-30T02:45:55.924Z,53.40
2022-08-30T02:46:47.799Z,53.40
2022-08-30T02:47:42.606Z,53.40
2022-08-30T02:48:31.410Z,53.40
2022-08-30T02:49:33.190Z,53.50
2022-08-30T02:50:15.051Z,53.40
2022-08-30T02:51:06.828Z,53.40
2022-08-30T02:51:58.669Z,53.50
2022-08-30T02:52:50.453Z,53.50
2022-08-30T02:53:42.396Z,53.50
2022-08-30T02:54:34.108Z,53.50
2022-08-30T02:55:25.851Z,53.60
2022-08-30T02:56:17.721Z,53.60
2022-08-30T02:57:16.422Z,53.70
2022-08-30T02:58:01.344Z,53.70
2022-08-30T02:58:53.200Z,53.70
2022-08-30T02:59:45.017Z,53.60
2022-08-30T03:00:36.827Z,53.70
2022-08-30T03:01:29.434Z,53.60
2022-08-30T03:02:20.456Z,53.70
2022-08-30T03:03:12.243Z,53.70
2022-08-30T03:04:04.144Z,53.70
2022-08-30T03:04:55.825Z,53.70
2022-08-30T03:05:47.720Z,53.70
2022-08-30T03:06:39.503Z,53.60
2022-08-30T03:07:31.341Z,53.70
2022-08-30T03:08:23.146Z,53.80
2022-08-30T03:09:14.971Z,53.80
2022-08-30T03:10:06.742Z,53.70
2022-08-30T03:10:58.597Z,53.80
2022-08-30T03:11:50.380Z,53.80
2022-08-30T03:12:42.220Z,53.80
2022-08-30T03:13:34.008Z,53.70
2022-08-30T03:14:26.064Z,53.80
2022-08-30T03:15:17.618Z,53.80
2022-08-30T03:16:09.536Z,53.80
2022-08-30T03:17:01.255Z,53.80
2022-08-30T03:17:53.081Z,53.70
2022-08-30T03:18:44.887Z,53.70
2022-08-30T03:19:36.706Z,53.70
2022-08-30T03:20:28.504Z,53.70
2022-08-30T03:21:20.332Z,53.70
2022-08-30T03:22:12.128Z,53.70
2022-08-30T03:23:03.988Z,53.80
2022-08-30T03:23:55.765Z,53.80
2022-08-30T03:24:47.598Z,53.70
2022-08-30T03:25:39.378Z,53.80
2022-08-30T03:26:31.207Z,53.80
2022-08-30T03:27:23.005Z,53.80
2022-08-30T03:28:14.850Z,53.70
2022-08-30T03:29:06.752Z,53.70
2022-08-30T03:29:58.450Z,53.80
2022-08-30T03:30:50.242Z,53.80
2022-08-30T03:31:53.132Z,53.80
2022-08-30T03:32:33.875Z,53.80
2022-08-30T03:33:25.726Z,53.80
2022-08-30T03:34:17.490Z,53.80
2022-08-30T03:35:09.344Z,53.80
2022-08-30T03:36:01.112Z,53.90
2022-08-30T03:36:53.008Z,53.90
2022-08-30T03:37:44.750Z,53.90
2022-08-30T03:38:36.581Z,53.90
2022-08-30T03:39:28.377Z,53.90
2022-08-30T03:40:20.259Z,54.00
2022-08-30T03:41:12.001Z,54.00
2022-08-30T03:42:03.838Z,54.00
2022-08-30T03:42:55.624Z,54.00
2022-08-30T03:43:47.488Z,54.00
2022-08-30T03:44:39.254Z,53.90
2022-08-30T03:45:31.138Z,53.90
2022-08-30T03:46:22.911Z,53.90
2022-08-30T03:47:14.670Z,53.90
2022-08-30T03:48:06.426Z,53.90
2022-08-30T03:48:58.284Z,53.90
2022-08-30T03:49:50.113Z,53.90
2022-08-30T03:50:41.909Z,53.90
2022-08-30T03:51:33.720Z,54.00
2022-08-30T03:52:25.547Z,54.00
2022-08-30T03:53:17.515Z,54.00
2022-08-30T03:54:09.153Z,54.00
2022-08-30T03:55:00.968Z,54.00
2022-08-30T03:55:52.765Z,54.00
2022-08-30T03:56:44.573Z,54.00
2022-08-30T03:57:36.611Z,53.90
2022-08-30T03:58:28.177Z,54.00
2022-08-30T03:59:19.999Z,54.00
2022-08-30T04:00:11.791Z,54.00
2022-08-30T04:01:03.714Z,54.00
2022-08-30T04:01:55.423Z,54.10
2022-08-30T04:02:47.238Z,54.10
2022-08-30T04:03:39.011Z,54.10
2022-08-30T04:04:30.863Z,54.20
2022-08-30T04:05:22.629Z,54.20
2022-08-30T04:06:14.463Z,54.20
2022-08-30T04:07:06.147Z,54.20
2022-08-30T04:07:58.091Z,54.20
2022-08-30T04:08:49.853Z,54.30
2022-08-30T04:09:41.685Z,54.20
2022-08-30T04:10:33.470Z,54.20
2022-08-30T04:11:25.304Z,54.20
2022-08-30T04:12:22.587Z,54.20
2022-08-30T04:13:08.957Z,54.10
2022-08-30T04:14:00.684Z,54.20
2022-08-30T04:14:52.517Z,54.20
2022-08-30T04:15:44.309Z,54.10
2022-08-30T04:16:36.102Z,54.10
2022-08-30T04:17:27.904Z,54.10
2022-08-30T04:18:19.640Z,54.20
2022-08-30T04:19:11.536Z,54.20
2022-08-30T04:20:03.285Z,54.20
2022-08-30T04:20:55.129Z,54.20
2022-08-30T04:21:46.964Z,54.20
2022-08-30T04:22:38.753Z,54.30
2022-08-30T04:23:30.568Z,54.30
2022-08-30T04:24:22.356Z,54.30
2022-08-30T04:25:15.920Z,54.20
2022-08-30T04:26:05.925Z,54.20
2022-08-30T04:26:57.788Z,54.30
2022-08-30T04:27:49.579Z,54.40
2022-08-30T04:28:41.387Z,54.40
2022-08-30T04:29:33.175Z,54.40
2022-08-30T04:30:24.984Z,54.40
2022-08-30T04:31:16.790Z,54.40
2022-08-30T04:32:08.785Z,54.40
2022-08-30T04:33:00.375Z,54.40
2022-08-30T04:33:52.202Z,54.40
2022-08-30T04:34:43.977Z,54.40
2022-08-30T04:35:35.799Z,54.40
2022-08-30T04:36:27.582Z,54.50
2022-08-30T04:37:19.361Z,54.50
2022-08-30T04:38:11.206Z,54.50
2022-08-30T04:39:03.014Z,54.50
2022-08-30T04:39:54.772Z,54.50
2022-08-30T04:40:46.600Z,54.60
2022-08-30T04:41:38.391Z,54.60
2022-08-30T04:42:30.212Z,54.60
2022-08-30T04:43:22.006Z,54.60
2022-08-30T04:44:15.867Z,54.60
2022-08-30T04:45:05.596Z,54.60
2022-08-30T04:45:57.472Z,54.60
2022-08-30T04:46:49.194Z,54.60
2022-08-30T04:47:41.004Z,54.60
2022-08-30T04:48:32.800Z,54.50
2022-08-30T04:49:24.621Z,54.60
2022-08-30T04:50:16.385Z,54.50
2022-08-30T04:51:08.212Z,54.60
2022-08-30T04:52:00.041Z,54.60
2022-08-30T04:52:51.801Z,54.60
2022-08-30T04:53:43.595Z,54.60
2022-08-30T04:54:35.392Z,54.60
2022-08-30T04:55:27.195Z,54.60
2022-08-30T04:56:19.016Z,54.60
2022-08-30T04:57:10.810Z,54.60
2022-08-30T04:58:02.600Z,54.60
2022-08-30T04:58:54.396Z,54.60
2022-08-30T04:59:46.149Z,54.70
2022-08-30T05:00:38.028Z,54.70
2022-08-30T05:01:29.858Z,54.60
2022-08-30T05:02:21.681Z,54.60
2022-08-30T05:03:13.415Z,54.60
2022-08-30T05:04:05.187Z,54.60
2022-08-30T05:04:57.018Z,54.60
2022-08-30T05:05:48.790Z,54.60
2022-08-30T05:06:40.642Z,54.60
2022-08-30T05:07:32.391Z,54.60
2022-08-30T05:08:24.947Z,54.60
2022-08-30T05:09:16.006Z,54.60
2022-08-30T05:10:11.105Z,54.60
2022-08-30T05:10:59.620Z,54.60
2022-08-30T05:11:51.447Z,54.50
2022-08-30T05:12:43.247Z,54.50
2022-08-30T05:13:36.850Z,54.50
2022-08-30T05:14:26.829Z,54.50
2022-08-30T05:15:18.663Z,54.50
2022-08-30T05:16:10.534Z,54.50
2022-08-30T05:17:02.270Z,54.50
2022-08-30T05:17:54.058Z,54.50
2022-08-30T05:18:45.880Z,54.50
2022-08-30T05:19:37.673Z,54.50
2022-08-30T05:20:29.486Z,54.50
2022-08-30T05:21:21.246Z,54.50
2022-08-30T05:22:13.088Z,54.60
2022-08-30T05:23:04.866Z,54.60
2022-08-30T05:23:56.645Z,54.60
2022-08-30T05:24:48.456Z,54.60
2022-08-30T05:25:40.293Z,54.60
2022-08-30T05:26:32.060Z,54.60
2022-08-30T05:27:23.886Z,54.60
2022-08-30T05:28:15.829Z,54.70
2022-08-30T05:29:07.490Z,54.70
2022-08-30T05:29:59.265Z,54.80
2022-08-30T05:30:51.091Z,54.80
2022-08-30T05:31:42.899Z,54.90
2022-08-30T05:32:34.685Z,54.90
2022-08-30T05:33:26.406Z,54.90
2022-08-30T05:34:18.266Z,54.90
2022-08-30T05:35:10.048Z,55.00
2022-08-30T05:36:01.873Z,55.00
2022-08-30T05:36:53.639Z,55.00
2022-08-30T05:37:45.472Z,55.00
2022-08-30T05:38:37.247Z,55.00
2022-08-30T05:39:29.070Z,55.00
2022-08-30T05:40:20.859Z,55.10
2022-08-30T05:41:12.660Z,55.10
2022-08-30T05:42:04.440Z,55.10
2022-08-30T05:42:56.191Z,55.00
2022-08-30T05:43:48.067Z,55.00
2022-08-30T05:44:39.862Z,55.00
2022-08-30T05:45:31.660Z,55.00
2022-08-30T05:46:23.621Z,55.00
2022-08-30T05:47:15.249Z,55.00
2022-08-30T05:48:07.056Z,54.90
2022-08-30T05:48:58.857Z,54.90
2022-08-30T05:49:50.671Z,54.90
2022-08-30T05:50:42.462Z,55.00
2022-08-30T05:51:34.253Z,54.90
2022-08-30T05:52:26.034Z,54.90
2022-08-30T05:53:17.853Z,54.90
2022-08-30T05:54:09.659Z,55.00
2022-08-30T05:55:01.464Z,54.90
2022-08-30T05:55:53.253Z,54.90
2022-08-30T05:56:45.075Z,55.00
2022-08-30T05:57:36.822Z,55.10
2022-08-30T05:58:28.657Z,55.10
2022-08-30T05:59:20.443Z,55.10
2022-08-30T06:00:12.255Z,55.20
2022-08-30T06:01:04.056Z,55.20
2022-08-30T06:01:55.887Z,55.30
2022-08-30T06:02:47.722Z,55.30
2022-08-30T06:03:39.472Z,55.30
2022-08-30T06:04:31.278Z,55.30
2022-08-30T06:05:23.047Z,55.30
2022-08-30T06:06:14.842Z,55.30
2022-08-30T06:07:07.317Z,55.30
2022-08-30T06:07:58.442Z,55.20
2022-08-30T06:08:50.267Z,55.30
2022-08-30T06:09:42.050Z,55.30
2022-08-30T06:10:33.869Z,55.40
2022-08-30T06:11:25.644Z,55.40
2022-08-30T06:12:17.480Z,55.40
2022-08-30T06:13:09.248Z,55.40
2022-08-30T06:14:01.092Z,55.50
2022-08-30T06:14:53.648Z,55.50
2022-08-30T06:15:44.708Z,55.50
2022-08-30T06:16:36.386Z,55.50
2022-08-30T06:17:28.271Z,55.50
2022-08-30T06:18:28.729Z,55.40
2022-08-30T06:19:11.898Z,55.50
2022-08-30T06:20:03.718Z,55.50
2022-08-30T06:20:55.506Z,55.50
2022-08-30T06:21:47.273Z,55.50
2022-08-30T06:22:39.101Z,55.50
2022-08-30T06:23:30.874Z,55.50
2022-08-30T06:24:35.818Z,55.50
2022-08-30T06:25:14.484Z,55.50
2022-08-30T06:26:06.236Z,55.50
2022-08-30T06:26:58.103Z,55.50
2022-08-30T06:27:54.510Z,55.40
2022-08-30T06:28:41.707Z,55.50
2022-08-30T06:29:33.544Z,55.50
2022-08-30T06:30:25.331Z,55.50
2022-08-30T06:31:17.177Z,55.50
2022-08-30T06:32:08.963Z,55.60
2022-08-30T06:33:00.775Z,55.60
2022-08-30T06:33:52.549Z,55.50
2022-08-30T06:34:44.391Z,55.60
2022-08-30T06:35:46.661Z,55.60
2022-08-30T06:36:27.994Z,55.50
2022-08-30T06:37:29.693Z,55.50
2022-08-30T06:38:11.628Z,55.60
2022-08-30T06:39:03.413Z,55.50
2022-08-30T06:39:55.250Z,55.40
2022-08-30T06:40:47.104Z,55.40
2022-08-30T06:41:38.883Z,55.40
2022-08-30T06:42:30.705Z,55.30
2022-08-30T06:43:22.481Z,55.40
2022-08-30T06:44:14.287Z,55.50
2022-08-30T06:45:11.140Z,55.60
2022-08-30T06:45:57.931Z,55.60
2022-08-30T06:46:49.798Z,55.50
2022-08-30T06:47:41.535Z,55.50
2022-08-30T06:48:33.339Z,55.50
2022-08-30T06:49:25.144Z,55.40
2022-08-30T06:50:16.901Z,55.30
2022-08-30T06:51:08.775Z,55.40
2022-08-30T06:52:00.517Z,55.30
2022-08-30T06:52:52.384Z,55.40
2022-08-30T06:53:44.200Z,55.40
2022-08-30T06:54:36.002Z,55.40
2022-08-30T06:55:27.842Z,55.40
2022-08-30T06:56:19.633Z,55.30
2022-08-30T06:57:11.449Z,55.30
2022-08-30T06:58:03.149Z,55.30
2022-08-30T06:58:55.071Z,55.20
2022-08-30T06:59:46.817Z,55.20
2022-08-30T07:00:38.710Z,55.20
2022-08-30T07:01:30.565Z,55.20
2022-08-30T07:02:22.369Z,55.10
2022-08-30T07:03:14.150Z,55.10
2022-08-30T07:04:05.976Z,55.00
2022-08-30T07:04:57.729Z,55.00
2022-08-30T07:05:49.571Z,55.00
2022-08-30T07:06:41.358Z,54.90
2022-08-30T07:07:33.195Z,55.00
2022-08-30T07:08:24.991Z,55.00
2022-08-30T07:09:16.850Z,55.10
2022-08-30T07:10:08.610Z,55.10
2022-08-30T07:11:00.450Z,55.10
2022-08-30T07:11:52.237Z,55.10
2022-08-30T07:12:44.083Z,55.10
2022-08-30T07:13:35.874Z,55.10
2022-08-30T07:14:27.696Z,55.00
2022-08-30T07:15:19.427Z,55.00
2022-08-30T07:16:11.431Z,55.00
2022-08-30T07:17:03.158Z,54.80
2022-08-30T07:17:54.973Z,54.80
2022-08-30T07:18:46.678Z,54.70
2022-08-30T07:19:38.604Z,54.60
2022-08-30T07:20:40.300Z,54.50
2022-08-30T07:21:22.246Z,54.50
2022-08-30T07:22:14.005Z,54.50
2022-08-30T07:23:05.860Z,54.70
2022-08-30T07:23:57.627Z,54.70
2022-08-30T07:24:49.469Z,54.70
2022-08-30T07:25:41.259Z,54.80
2022-08-30T07:26:33.094Z,54.80
2022-08-30T07:27:24.896Z,54.90
2022-08-30T07:28:16.682Z,54.80
2022-08-30T07:29:08.516Z,54.70
2022-08-30T07:30:00.377Z,54.70
2022-08-30T07:30:52.162Z,54.70
2022-08-30T07:31:43.989Z,54.60
2022-08-30T07:32:35.826Z,54.50
2022-08-30T07:33:27.622Z,54.30
2022-08-30T07:34:20.644Z,54.20
2022-08-30T07:35:11.273Z,54.20
2022-08-30T07:36:03.059Z,54.30
2022-08-30T07:36:54.907Z,54.30
2022-08-30T07:37:46.617Z,54.30
2022-08-30T07:38:38.556Z,54.00
2022-08-30T07:39:31.778Z,54.00
2022-08-30T07:40:22.234Z,53.90
2022-08-30T07:41:13.988Z,53.80
2022-08-30T07:42:05.848Z,53.80
2022-08-30T07:42:57.626Z,53.60
2022-08-30T07:43:49.459Z,53.70
2022-08-30T07:44:41.265Z,53.70
2022-08-30T07:45:33.083Z,53.60
2022-08-30T07:46:24.970Z,53.60
2022-08-30T07:47:16.638Z,53.50
2022-08-30T07:48:08.547Z,53.70
2022-08-30T07:49:00.368Z,53.60
2022-08-30T07:49:52.220Z,53.80
2022-08-30T07:50:44.021Z,53.70
2022-08-30T07:51:35.850Z,53.30
2022-08-30T07:52:27.699Z,53.20
2022-08-30T07:53:19.558Z,53.20
2022-08-30T07:54:11.327Z,53.10
2022-08-30T07:55:03.138Z,53.10
2022-08-30T07:55:54.972Z,53.00
2022-08-30T07:56:46.715Z,53.00
2022-08-30T07:57:38.634Z,52.80
2022-08-30T07:58:30.430Z,52.80
2022-08-30T07:59:22.260Z,52.70
2022-08-30T08:00:14.097Z,52.70
2022-08-30T08:01:05.924Z,52.60
2022-08-30T08:01:57.759Z,52.60
2022-08-30T08:02:49.613Z,52.70
2022-08-30T08:03:41.351Z,52.70
2022-08-30T08:04:33.236Z,52.60
2022-08-30T08:05:25.091Z,52.60
2022-08-30T08:06:16.757Z,52.70
2022-08-30T08:07:08.628Z,52.70
2022-08-30T08:08:00.482Z,52.90
2022-08-30T08:08:53.280Z,53.10
2022-08-30T08:09:44.129Z,53.20
2022-08-30T08:10:35.907Z,53.10
2022-08-30T08:11:32.855Z,52.80
2022-08-30T08:12:19.485Z,52.70
2022-08-30T08:13:11.405Z,52.70
2022-08-30T08:14:03.255Z,52.50
2022-08-30T08:14:55.031Z,52.50
2022-08-30T08:15:46.798Z,52.60
2022-08-30T08:16:38.666Z,52.60
2022-08-30T08:17:30.465Z,52.80
2022-08-30T08:18:22.310Z,52.70
2022-08-30T08:19:14.114Z,52.80
2022-08-30T08:20:05.950Z,52.80
2022-08-30T08:20:57.761Z,52.90
2022-08-30T08:21:59.414Z,52.90
2022-08-30T08:22:41.421Z,52.70
2022-08-30T08:23:33.250Z,52.70
2022-08-30T08:24:25.041Z,52.70
2022-08-30T08:25:16.793Z,52.60
2022-08-30T08:26:08.683Z,52.60
2022-08-30T08:27:00.534Z,52.30
2022-08-30T08:27:52.315Z,52.30
2022-08-30T08:28:44.150Z,52.30
2022-08-30T08:29:35.966Z,52.20
2022-08-30T08:30:27.805Z,52.10
2022-08-30T08:31:19.595Z,52.00
2022-08-30T08:32:11.416Z,52.10
2022-08-30T08:33:03.231Z,52.10
2022-08-30T08:33:55.111Z,52.20
2022-08-30T08:34:46.795Z,52.20
2022-08-30T08:35:38.717Z,52.30
2022-08-30T08:36:30.500Z,52.40
2022-08-30T08:37:22.357Z,52.50
2022-08-30T08:38:14.155Z,52.60
2022-08-30T08:39:06.000Z,52.60
2022-08-30T08:39:57.883Z,52.60
2022-08-30T08:40:49.646Z,52.60
2022-08-30T08:41:41.481Z,52.60
2022-08-30T08:42:33.302Z,52.50
2022-08-30T08:43:25.132Z,52.50
2022-08-30T08:44:16.925Z,52.30
2022-08-30T08:45:10.978Z,52.30
2022-08-30T08:46:00.654Z,52.20
2022-08-30T08:46:52.460Z,52.20
2022-08-30T08:47:44.313Z,52.00
2022-08-30T08:48:58.533Z,51.90
2022-08-30T08:49:27.961Z,51.90
2022-08-30T08:50:19.802Z,52.00
2022-08-30T08:51:11.719Z,52.10
2022-08-30T08:52:03.435Z,52.20
2022-08-30T08:52:55.269Z,52.20
2022-08-30T08:53:47.289Z,52.20
2022-08-30T08:54:38.930Z,52.00
2022-08-30T08:55:30.803Z,51.90
2022-08-30T08:56:22.527Z,51.90
2022-08-30T08:57:16.127Z,52.00
2022-08-30T08:58:06.262Z,52.20
2022-08-30T08:58:58.108Z,52.10
2022-08-30T08:59:49.929Z,52.00
2022-08-30T09:00:41.748Z,52.00
2022-08-30T09:01:33.656Z,52.00
2022-08-30T09:02:25.431Z,52.20
2022-08-30T09:03:17.262Z,52.10
2022-08-30T09:04:09.126Z,52.20
2022-08-30T09:05:01.013Z,52.10
2022-08-30T09:05:52.764Z,52.10
2022-08-30T09:06:45.493Z,52.10
2022-08-30T09:07:36.453Z,52.10
2022-08-30T09:08:28.325Z,52.10
2022-08-30T09:09:20.068Z,52.20
2022-08-30T09:10:11.994Z,52.10
2022-08-30T09:11:03.816Z,52.00
2022-08-30T09:11:55.680Z,51.90
2022-08-30T09:12:47.777Z,52.00
2022-08-30T09:13:39.370Z,51.90
2022-08-30T09:14:31.189Z,52.10
2022-08-30T09:15:23.051Z,52.10
2022-08-30T09:16:22.307Z,52.40
2022-08-30T09:17:06.662Z,52.20
2022-08-30T09:17:58.570Z,51.90
2022-08-30T09:18:54.523Z,51.50
2022-08-30T09:19:42.247Z,51.30
2022-08-30T09:20:34.122Z,51.10
2022-08-30T09:21:25.914Z,50.90
2022-08-30T09:22:17.782Z,50.70
2022-08-30T09:23:09.590Z,50.60
2022-08-30T09:24:01.491Z,50.70
2022-08-30T09:24:53.271Z,50.80
2022-08-30T09:25:45.148Z,51.00
2022-08-30T09:26:37.098Z,51.30
2022-08-30T09:27:28.836Z,51.40
2022-08-30T09:28:20.659Z,51.40
2022-08-30T09:29:12.523Z,51.50
2022-08-30T09:30:04.354Z,51.50
2022-08-30T09:30:56.317Z,51.50
2022-08-30T09:31:48.044Z,51.50
2022-08-30T09:32:39.906Z,51.60
2022-08-30T09:33:31.742Z,51.60
2022-08-30T09:34:23.628Z,51.60
2022-08-30T09:35:15.441Z,51.60
2022-08-30T09:36:07.321Z,51.60
2022-08-30T09:36:59.142Z,51.70
2022-08-30T09:37:51.064Z,51.70
2022-08-30T09:38:42.875Z,51.80
2022-08-30T09:39:34.730Z,52.00
2022-08-30T09:40:26.537Z,52.10
2022-08-30T09:41:18.444Z,52.20
2022-08-30T09:42:10.263Z,52.20
2022-08-30T09:43:02.152Z,52.20
2022-08-30T09:43:53.988Z,52.20
2022-08-30T09:44:45.851Z,52.10
2022-08-30T09:45:37.746Z,52.20
2022-08-30T09:46:29.652Z,52.10
2022-08-30T09:47:24.141Z,52.10
2022-08-30T09:48:13.274Z,52.00
2022-08-30T09:49:05.150Z,52.00
2022-08-30T09:49:56.924Z,52.00
2022-08-30T09:50:48.850Z,52.00
2022-08-30T09:51:40.709Z,52.10
2022-08-30T09:52:32.563Z,52.00
2022-08-30T09:53:24.407Z,52.00
2022-08-30T09:54:18.100Z,52.10
2022-08-30T09:55:08.209Z,52.10
2022-08-30T09:55:59.982Z,52.10
2022-08-30T09:56:51.861Z,52.10
2022-08-30T09:57:43.694Z,52.00
2022-08-30T09:58:35.575Z,52.10
2022-08-30T09:59:27.371Z,52.10
2022-08-30T10:00:19.306Z,52.10
2022-08-30T10:01:11.220Z,52.10
2022-08-30T10:02:03.046Z,52.10
2022-08-30T10:02:54.837Z,53.70
2022-08-30T10:03:46.650Z,52.50
2022-08-30T10:04:38.561Z,52.50
2022-08-30T10:05:30.435Z,52.30
2022-08-30T10:06:22.272Z,52.30
2022-08-30T10:07:14.154Z,52.00
2022-08-30T10:08:05.967Z,51.60
2022-08-30T10:08:57.864Z,50.70
2022-08-30T10:09:49.668Z,50.60
2022-08-30T10:10:45.646Z,50.70
2022-08-30T10:11:33.367Z,50.60
2022-08-30T10:12:25.247Z,51.00
2022-08-30T10:13:17.051Z,50.90
2022-08-30T10:14:08.920Z,50.80
2022-08-30T10:15:00.750Z,51.20
2022-08-30T10:15:52.534Z,50.80
2022-08-30T10:16:44.427Z,50.50
2022-08-30T10:17:36.307Z,50.80
2022-08-30T10:18:28.137Z,50.50
2022-08-30T10:19:19.958Z,50.30
2022-08-30T10:20:11.898Z,50.20
2022-08-30T10:21:03.718Z,50.70
2022-08-30T10:21:55.515Z,50.20
2022-08-30T10:22:47.404Z,49.90
2022-08-30T10:23:39.225Z,49.50
2022-08-30T10:24:33.460Z,50.00
2022-08-30T10:25:22.948Z,49.80
2022-08-30T10:26:14.825Z,50.00
2022-08-30T10:27:06.580Z,49.80
2022-08-30T10:27:58.451Z,49.90
2022-08-30T10:28:50.467Z,49.70
2022-08-30T10:29:43.444Z,49.80
2022-08-30T10:30:34.044Z,50.00
2022-08-30T10:31:25.927Z,49.70
2022-08-30T10:32:17.756Z,50.60
2022-08-30T10:33:09.679Z,50.60
2022-08-30T10:34:01.461Z,50.60
2022-08-30T10:34:53.357Z,50.50
2022-08-30T10:35:45.166Z,50.60
2022-08-30T10:36:36.963Z,50.50
2022-08-30T10:37:28.884Z,50.60
2022-08-30T10:38:20.779Z,50.50
2022-08-30T10:39:15.092Z,50.70
2022-08-30T10:40:04.556Z,50.80
2022-08-30T10:40:56.328Z,50.80
2022-08-30T10:41:48.217Z,50.80
2022-08-30T10:42:40.312Z,50.70
2022-08-30T10:43:31.920Z,51.00
2022-08-30T10:44:23.789Z,51.00
2022-08-30T10:45:15.661Z,51.00
2022-08-30T10:46:07.515Z,51.00
2022-08-30T10:46:59.399Z,51.10
2022-08-30T10:47:51.263Z,51.20
2022-08-30T10:48:44.523Z,51.50
2022-08-30T10:49:34.983Z,51.40
2022-08-30T10:50:26.827Z,51.50
2022-08-30T10:51:18.739Z,51.40
2022-08-30T10:52:10.498Z,51.60
2022-08-30T10:53:02.446Z,51.80
2022-08-30T10:53:54.338Z,51.80
2022-08-30T10:54:46.192Z,51.80
2022-08-30T10:55:38.049Z,51.70
2022-08-30T10:56:29.932Z,51.80
2022-08-30T10:57:21.786Z,51.80
2022-08-30T10:58:13.654Z,51.90
2022-08-30T10:59:05.555Z,52.00
2022-08-30T10:59:57.330Z,51.90
2022-08-30T11:00:49.302Z,51.80
2022-08-30T11:01:46.307Z,52.00
2022-08-30T11:02:33.016Z,52.00
2022-08-30T11:03:24.854Z,52.20
2022-08-30T11:04:16.750Z,52.30
2022-08-30T11:05:08.623Z,52.30
2022-08-30T11:06:00.497Z,52.30
2022-08-30T11:06:53.893Z,52.00